createdAt,value
2018-04-10T00:00:57.053Z,4.90
2018-04-10T00:03:24.574Z,3.95
2018-04-10T00:05:52.094Z,4.50
2018-04-10T00:08:19.644Z,5.45
2018-04-10T00:10:47.178Z,5.03
2018-04-10T00:13:14.699Z,5.28
2018-04-10T00:15:42.997Z,5.47
2018-04-10T00:18:10.495Z,5.40
2018-04-10T00:20:38.006Z,3.90
2018-04-10T00:23:05.558Z,4.40
2018-04-10T00:25:33.141Z,4.53
2018-04-10T00:28:00.678Z,4.47
2018-04-10T00:30:30.679Z,4.12
2018-04-10T00:32:58.973Z,5.35
2018-04-10T00:35:26.501Z,4.55
2018-04-10T00:37:54.057Z,4.78
2018-04-10T00:40:21.571Z,4.80
2018-04-10T00:42:49.085Z,5.03
2018-04-10T00:45:17.391Z,5.00
2018-04-10T00:47:44.925Z,5.30
2018-04-10T00:50:13.196Z,4.95
2018-04-10T00:52:41.521Z,5.22
2018-04-10T00:55:09.022Z,5.12
2018-04-10T00:57:36.541Z,5.00
2018-04-10T01:00:04.079Z,5.28
2018-04-10T01:02:31.606Z,5.20
2018-04-10T01:04:59.906Z,4.95
2018-04-10T01:07:27.440Z,5.00
2018-04-10T01:09:55.744Z,4.50
2018-04-10T01:12:23.282Z,5.47
2018-04-10T01:14:51.583Z,4.95
2018-04-10T01:17:19.090Z,4.60
2018-04-10T01:19:46.610Z,4.50
2018-04-10T01:22:14.156Z,5.03
2018-04-10T01:24:41.687Z,4.47
2018-04-10T01:27:09.981Z,4.50
2018-04-10T01:29:38.285Z,4.97
2018-04-10T01:32:05.807Z,4.35
2018-04-10T01:34:34.092Z,3.80
2018-04-10T01:37:02.427Z,4.65
2018-04-10T01:39:29.941Z,4.40
2018-04-10T01:41:57.462Z,4.75
2018-04-10T01:44:25.012Z,3.55
2018-04-10T01:46:52.530Z,4.07
2018-04-10T01:49:20.037Z,3.55
2018-04-10T01:51:47.587Z,5.03
2018-04-10T01:54:15.105Z,4.70
2018-04-10T01:56:42.616Z,4.80
2018-04-10T01:59:10.160Z,4.22
2018-04-10T02:01:37.690Z,4.43
2018-04-10T02:04:05.201Z,3.75
2018-04-10T02:06:33.500Z,4.00
2018-04-10T02:09:01.022Z,4.50
2018-04-10T02:27:05.307Z,5.30
2018-04-10T02:29:32.840Z,5.20
2018-04-10T02:32:00.377Z,5.35
2018-04-10T02:34:28.660Z,5.60
2018-04-10T02:36:56.962Z,6.43
2018-04-10T02:39:24.471Z,5.03
2018-04-10T02:41:52.002Z,5.93
2018-04-10T02:44:19.552Z,4.30
2018-04-10T02:46:47.073Z,4.85
2018-04-10T02:49:15.356Z,4.78
2018-04-10T02:51:43.665Z,4.18
2018-04-10T02:54:11.170Z,4.78
2018-04-10T02:56:38.681Z,7.00
2018-04-10T02:59:06.210Z,5.87
2018-04-10T03:01:33.760Z,4.37
2018-04-10T03:04:02.046Z,4.72
2018-04-10T03:06:29.587Z,5.28
2018-04-10T03:08:57.915Z,5.10
2018-04-10T03:11:25.406Z,5.25
2018-04-10T03:13:52.935Z,5.65
2018-04-10T03:16:20.466Z,6.50
2018-04-10T03:18:48.013Z,5.50
2018-04-10T03:21:16.312Z,5.03
2018-04-10T03:23:43.816Z,5.55
2018-04-10T03:26:11.322Z,6.15
2018-04-10T03:28:38.874Z,5.47
2018-04-10T03:31:06.400Z,5.50
2018-04-10T03:33:33.912Z,4.65
2018-04-10T03:36:01.457Z,4.78
2018-04-10T03:38:28.985Z,5.22
2018-04-10T03:40:57.285Z,4.32
2018-04-10T03:43:24.811Z,4.75
2018-04-10T03:45:52.332Z,5.10
2018-04-10T03:48:19.843Z,5.00
2018-04-10T03:50:49.052Z,5.10
2018-04-10T03:53:17.337Z,5.25
2018-04-10T03:55:44.914Z,5.62
2018-04-10T03:58:13.179Z,5.37
2018-04-10T04:00:40.683Z,4.85
2018-04-10T04:03:08.214Z,6.70
2018-04-10T04:05:35.770Z,6.32
2018-04-10T04:08:03.290Z,5.22
2018-04-10T04:10:31.559Z,5.20
2018-04-10T04:12:59.101Z,5.62
2018-04-10T04:15:26.607Z,4.93
2018-04-10T04:17:54.118Z,5.03
2018-04-10T04:20:33.497Z,5.90
2018-04-10T04:23:01.059Z,5.30
2018-04-10T04:25:28.977Z,4.97
2018-04-10T04:27:56.519Z,5.97
2018-04-10T04:30:24.523Z,5.22
2018-04-10T04:32:52.112Z,4.70
2018-04-10T04:35:19.653Z,4.75
2018-04-10T04:37:47.924Z,5.07
2018-04-10T04:40:16.225Z,5.03
2018-04-10T04:42:43.767Z,4.78
2018-04-10T04:45:12.412Z,4.85
2018-04-10T04:47:40.755Z,4.72
2018-04-10T04:50:08.303Z,4.47
2018-04-10T04:52:35.810Z,5.22
2018-04-10T04:55:03.314Z,5.22
2018-04-10T04:57:31.625Z,5.43
2018-04-10T04:59:59.638Z,5.35
2018-04-10T05:02:27.212Z,4.93
2018-04-10T05:04:55.536Z,4.28
2018-04-10T05:07:23.066Z,4.40
2018-04-10T05:09:50.562Z,4.53
2018-04-10T05:12:19.616Z,4.90
2018-04-10T05:14:47.209Z,4.45
2018-04-10T05:17:14.738Z,4.62
2018-04-10T05:19:42.288Z,4.78
2018-04-10T05:22:10.565Z,4.62
2018-04-10T05:24:38.097Z,5.65
2018-04-10T05:27:05.719Z,4.72
2018-04-10T05:29:33.224Z,4.95
2018-04-10T05:32:00.745Z,4.78
2018-04-10T05:34:28.309Z,5.00
2018-04-10T05:36:55.832Z,4.28
2018-04-10T05:39:23.348Z,4.82
2018-04-10T05:41:51.679Z,4.40
2018-04-10T05:44:19.202Z,4.87
2018-04-10T05:46:47.493Z,5.10
2018-04-10T05:49:15.033Z,4.47
2018-04-10T05:51:43.318Z,5.30
2018-04-10T05:54:11.596Z,5.50
2018-04-10T05:56:39.912Z,4.72
2018-04-10T05:59:07.432Z,5.45
2018-04-10T06:01:35.716Z,5.35
2018-04-10T06:04:03.263Z,5.18
2018-04-10T06:06:31.554Z,5.03
2018-04-10T06:08:59.829Z,4.35
2018-04-10T06:11:27.363Z,4.40
2018-04-10T06:13:54.903Z,5.03
2018-04-10T06:16:22.420Z,4.40
2018-04-10T06:18:49.978Z,4.12
2018-04-10T06:21:17.504Z,4.55
2018-04-10T06:23:45.790Z,3.92
2018-04-10T06:26:14.105Z,4.10
2018-04-10T06:28:41.624Z,4.60
2018-04-10T06:31:09.916Z,4.70
2018-04-10T06:33:37.486Z,4.60
2018-04-10T06:36:05.010Z,3.97
2018-04-10T06:38:33.303Z,4.13
2018-04-10T06:41:01.618Z,5.77
2018-04-10T06:43:29.153Z,4.70
2018-04-10T06:45:56.667Z,4.60
2018-04-10T06:48:24.233Z,4.00
2018-04-10T06:50:51.752Z,3.73
2018-04-10T06:53:19.473Z,3.67
2018-04-10T06:55:47.799Z,3.10
2018-04-10T06:58:15.333Z,4.60
2018-04-10T07:00:42.854Z,2.87
2018-04-10T07:03:10.403Z,3.20
2018-04-10T07:05:37.940Z,3.93
2018-04-10T07:08:05.459Z,2.87
2018-04-10T07:10:33.010Z,2.63
2018-04-10T07:13:01.295Z,2.60
2018-04-10T07:15:29.192Z,3.17
2018-04-10T07:17:56.754Z,2.60
2018-04-10T07:20:25.047Z,3.50
2018-04-10T07:22:52.585Z,4.13
2018-04-10T07:25:20.136Z,3.43
2018-04-10T07:27:47.688Z,3.80
2018-04-10T07:30:15.212Z,5.13
2018-04-10T07:32:43.521Z,5.70
2018-04-10T07:35:11.040Z,5.30
2018-04-10T07:37:38.560Z,6.07
2018-04-10T07:40:06.106Z,5.23
2018-04-10T07:42:33.646Z,4.23
2018-04-10T07:45:01.934Z,4.40
2018-04-10T07:47:29.480Z,3.27
2018-04-10T07:49:57.762Z,3.97
2018-04-10T07:52:25.278Z,3.77
2018-04-10T07:54:52.819Z,3.93
2018-04-10T07:57:20.332Z,4.93
2018-04-10T07:59:47.843Z,4.73
2018-04-10T08:02:15.380Z,3.67
2018-04-10T08:04:42.913Z,3.90
2018-04-10T08:07:10.433Z,4.00
2018-04-10T08:09:37.998Z,4.07
2018-04-10T08:12:05.525Z,3.23
2018-04-10T08:14:33.031Z,3.47
2018-04-10T08:17:01.352Z,3.70
2018-04-10T08:19:28.874Z,2.97
2018-04-10T08:21:57.156Z,3.80
2018-04-10T08:24:24.726Z,3.60
2018-04-10T08:26:52.535Z,3.60
2018-04-10T08:29:20.055Z,3.73
2018-04-10T08:31:47.600Z,3.00
2018-04-10T08:34:15.120Z,2.97
2018-04-10T08:36:42.746Z,3.33
2018-04-10T08:39:10.303Z,2.87
2018-04-10T08:41:37.817Z,3.10
2018-04-10T08:44:06.119Z,2.97
2018-04-10T08:46:33.661Z,1.70
2018-04-10T08:49:01.954Z,2.17
2018-04-10T08:51:29.477Z,1.90
2018-04-10T08:53:57.016Z,1.60
2018-04-10T08:56:24.521Z,2.13
2018-04-10T08:58:52.800Z,1.73
2018-04-10T09:01:20.352Z,1.80
2018-04-10T09:03:48.632Z,1.63
2018-04-10T09:06:16.917Z,2.00
2018-04-10T09:08:44.452Z,1.80
2018-04-10T09:11:12.740Z,1.60
2018-04-10T09:13:41.018Z,1.80
2018-04-10T09:16:09.344Z,1.90
2018-04-10T09:18:36.868Z,1.77
2018-04-10T09:21:04.404Z,2.00
2018-04-10T09:23:32.735Z,2.00
2018-04-10T09:26:00.255Z,1.87
2018-04-10T09:28:28.657Z,1.67
2018-04-10T09:30:56.199Z,1.47
2018-04-10T09:33:23.726Z,1.30
2018-04-10T09:35:51.611Z,1.40
2018-04-10T09:38:19.171Z,2.23
2018-04-10T09:40:47.451Z,2.10
2018-04-10T09:43:14.959Z,2.17
2018-04-10T09:45:42.498Z,1.50
2018-04-10T09:48:10.007Z,1.47
2018-04-10T09:50:38.313Z,1.10
2018-04-10T09:53:05.878Z,1.27
2018-04-10T09:55:33.454Z,1.27
2018-04-10T09:58:00.978Z,1.60
2018-04-10T10:00:35.088Z,1.30
2018-04-10T10:03:03.379Z,1.20
2018-04-10T10:05:30.908Z,1.17
2018-04-10T10:07:58.447Z,1.20
2018-04-10T10:10:25.959Z,1.00
2018-04-10T10:12:53.487Z,0.83
2018-04-10T10:15:21.818Z,0.97
2018-04-10T10:17:49.336Z,0.90
2018-04-10T10:20:17.627Z,0.90
2018-04-10T10:22:45.172Z,1.20
2018-04-10T10:25:13.456Z,1.27
2018-04-10T10:27:41.731Z,1.50
2018-04-10T10:30:10.049Z,0.90
2018-04-10T10:32:37.581Z,1.17
2018-04-10T10:35:05.104Z,1.37
2018-04-10T10:37:32.644Z,2.63
2018-04-10T10:40:00.166Z,1.40
2018-04-10T10:42:27.676Z,1.07
2018-04-10T10:44:55.219Z,1.10
2018-04-10T10:47:22.724Z,1.00
2018-04-10T10:49:50.252Z,1.00
2018-04-10T10:52:17.802Z,0.70
2018-04-10T10:54:45.315Z,0.93
2018-04-10T10:57:12.829Z,0.83
2018-04-10T10:59:40.380Z,0.90
2018-04-10T11:02:07.891Z,1.03
2018-04-10T11:04:35.413Z,1.00
2018-04-10T11:07:02.970Z,0.80
2018-04-10T11:09:30.488Z,0.70
2018-04-10T11:11:58.025Z,0.73
2018-04-10T11:14:25.565Z,0.93
2018-04-10T11:16:53.843Z,0.90
2018-04-10T11:19:22.124Z,0.70
2018-04-10T11:21:49.681Z,0.83
2018-04-10T11:24:17.957Z,0.70
2018-04-10T11:26:46.240Z,0.87
2018-04-10T11:29:13.776Z,0.70
2018-04-10T11:31:42.073Z,1.10
2018-04-10T11:34:10.358Z,1.00
2018-04-10T11:36:37.892Z,1.00
2018-04-10T11:39:06.179Z,1.00
2018-04-10T11:41:34.454Z,1.07
2018-04-10T11:44:02.752Z,0.80
2018-04-10T11:46:30.273Z,0.80
2018-04-10T11:48:57.787Z,0.90
2018-04-10T11:51:25.353Z,0.80
2018-04-10T11:53:52.863Z,0.80
2018-04-10T11:56:21.147Z,0.90
2018-04-10T11:58:49.457Z,0.87
2018-04-10T12:01:16.968Z,0.70
2018-04-10T12:03:45.245Z,0.70
2018-04-10T12:06:13.574Z,0.70
2018-04-10T12:08:41.090Z,0.70
2018-04-10T12:11:09.380Z,0.70
2018-04-10T12:13:36.926Z,0.90
2018-04-10T12:16:05.277Z,1.27
2018-04-10T12:18:32.744Z,1.20
2018-04-10T12:21:00.295Z,0.73
2018-04-10T12:23:27.813Z,0.80
2018-04-10T12:25:55.334Z,0.80
2018-04-10T12:28:23.656Z,1.00
2018-04-10T12:30:51.167Z,0.77
2018-04-10T12:33:19.452Z,0.73
2018-04-10T12:35:47.769Z,1.40
2018-04-10T12:38:15.297Z,1.57
2018-04-10T12:40:42.817Z,1.13
2018-04-10T12:43:11.137Z,1.00
2018-04-10T12:45:38.673Z,1.20
2018-04-10T12:48:06.955Z,1.33
2018-04-10T12:50:35.274Z,0.87
2018-04-10T12:53:02.794Z,1.30
2018-04-10T12:55:31.094Z,1.10
2018-04-10T12:57:58.627Z,0.77
2018-04-10T13:00:26.897Z,1.17
2018-04-10T13:02:55.177Z,0.93
2018-04-10T13:05:23.503Z,1.37
2018-04-10T13:07:51.018Z,0.97
2018-04-10T13:10:19.320Z,1.10
2018-04-10T13:12:46.847Z,1.00
2018-04-10T13:15:15.140Z,1.10
2018-04-10T13:17:42.658Z,1.17
2018-04-10T13:20:10.216Z,2.10
2018-04-10T13:22:37.727Z,1.13
2018-04-10T13:25:05.263Z,0.90
2018-04-10T13:27:33.570Z,1.10
2018-04-10T13:30:01.083Z,1.20
2018-04-10T13:32:28.596Z,1.40
2018-04-10T13:34:56.137Z,0.93
2018-04-10T13:37:23.668Z,0.80
2018-04-10T13:39:51.962Z,0.90
2018-04-10T13:42:19.517Z,1.70
2018-04-10T13:44:47.078Z,1.10
2018-04-10T13:47:14.594Z,1.20
2018-04-10T13:49:42.145Z,0.90
2018-04-10T13:52:09.959Z,1.13
2018-04-10T13:54:38.238Z,0.97
2018-04-10T13:57:05.797Z,0.97
2018-04-10T13:59:33.303Z,1.20
2018-04-10T14:02:00.832Z,0.80
2018-04-10T14:04:28.380Z,0.80
2018-04-10T14:06:55.912Z,0.90
2018-04-10T14:09:24.205Z,0.90
2018-04-10T14:11:52.521Z,1.20
2018-04-10T14:14:20.052Z,0.93
2018-04-10T14:16:47.577Z,1.27
2018-04-10T14:19:15.153Z,1.40
2018-04-10T14:21:43.436Z,1.53
2018-04-10T14:24:11.735Z,0.83
2018-04-10T14:26:39.284Z,0.90
2018-04-10T14:29:06.803Z,1.20
2018-04-10T14:31:34.327Z,1.43
2018-04-10T14:34:01.893Z,1.20
2018-04-10T14:36:29.403Z,2.20
2018-04-10T14:38:57.681Z,1.77
2018-04-10T14:41:26.008Z,1.53
2018-04-10T14:43:53.524Z,1.70
2018-04-10T14:46:21.045Z,1.70
2018-04-10T14:48:48.584Z,1.60
2018-04-10T14:51:16.104Z,1.70
2018-04-10T14:53:43.624Z,2.40
2018-04-10T14:56:11.165Z,2.20
2018-04-10T14:58:38.688Z,1.70
2018-04-10T15:01:06.209Z,1.50
2018-04-10T15:03:33.744Z,1.90
2018-04-10T15:06:01.288Z,4.63
2018-04-10T15:08:28.816Z,2.03
2018-04-10T15:10:56.355Z,1.77
2018-04-10T15:13:24.651Z,1.53
2018-04-10T15:15:52.166Z,1.30
2018-04-10T15:18:19.745Z,1.87
2018-04-10T15:20:48.031Z,1.50
2018-04-10T15:23:16.320Z,1.70
2018-04-10T15:25:43.860Z,1.90
2018-04-10T15:28:12.146Z,1.60
2018-04-10T15:30:40.441Z,2.23
2018-04-10T15:33:07.981Z,1.97
2018-04-10T15:35:36.252Z,1.97
2018-04-10T15:38:04.544Z,1.70
2018-04-10T15:40:32.097Z,2.53
2018-04-10T15:43:00.372Z,2.17
2018-04-10T15:45:28.664Z,2.07
2018-04-10T15:47:56.206Z,2.00
2018-04-10T15:50:24.483Z,2.47
2018-04-10T15:52:52.761Z,3.00
2018-04-10T15:55:21.106Z,2.13
2018-04-10T15:57:48.611Z,2.03
2018-04-10T16:00:16.123Z,2.20
2018-04-10T16:02:43.706Z,2.37
2018-04-10T16:05:11.201Z,1.43
2018-04-10T16:07:38.716Z,1.77
2018-04-10T16:10:07.022Z,1.73
2018-04-10T16:12:34.554Z,2.30
2018-04-10T16:15:02.845Z,2.20
2018-04-10T16:17:31.151Z,2.27
2018-04-10T16:19:58.663Z,1.60
2018-04-10T16:22:26.949Z,1.60
2018-04-10T16:24:55.266Z,1.93
2018-04-10T16:27:22.768Z,2.03
2018-04-10T16:29:50.267Z,2.00
2018-04-10T16:32:17.808Z,1.70
2018-04-10T16:34:46.111Z,2.03
2018-04-10T16:37:13.620Z,1.70
2018-04-10T16:39:41.168Z,1.80
2018-04-10T16:42:08.683Z,1.80
2018-04-10T16:44:36.188Z,1.60
2018-04-10T16:47:03.730Z,1.47
2018-04-10T16:49:31.240Z,1.47
2018-04-10T16:51:59.506Z,1.57
2018-04-10T16:54:27.817Z,1.57
2018-04-10T16:56:55.322Z,2.10
2018-04-10T16:59:22.853Z,1.27
2018-04-10T17:01:50.392Z,1.67
2018-04-10T17:04:17.903Z,1.40
2018-04-10T17:06:49.786Z,1.33
2018-04-10T17:09:17.320Z,1.27
2018-04-10T17:11:44.844Z,1.53
2018-04-10T17:14:12.802Z,1.10
2018-04-10T17:16:40.338Z,1.30
2018-04-10T17:19:07.871Z,1.43
2018-04-10T17:21:36.175Z,1.63
2018-04-10T17:24:03.703Z,1.63
2018-04-10T17:26:31.221Z,1.70
2018-04-10T17:28:58.758Z,2.07
2018-04-10T17:31:26.284Z,1.80
2018-04-10T17:33:54.564Z,1.77
2018-04-10T17:36:22.864Z,1.67
2018-04-10T17:38:50.409Z,1.70
2018-04-10T17:41:17.967Z,1.57
2018-04-10T17:43:46.280Z,1.70
2018-04-10T17:46:13.822Z,1.70
2018-04-10T17:48:41.357Z,1.20
2018-04-10T17:51:09.651Z,2.20
2018-04-10T17:53:37.915Z,1.93
2018-04-10T17:56:06.248Z,1.60
2018-04-10T17:58:33.755Z,2.60
2018-04-10T18:01:02.040Z,2.03
2018-04-10T18:03:29.560Z,1.30
2018-04-10T18:05:57.875Z,1.90
2018-04-10T18:08:25.444Z,1.50
2018-04-10T18:10:52.968Z,1.70
2018-04-10T18:13:21.265Z,1.67
2018-04-10T18:15:48.953Z,1.40
2018-04-10T18:18:17.315Z,2.40
2018-04-10T18:20:44.836Z,2.30
2018-04-10T18:23:13.150Z,2.63
2018-04-10T18:25:40.692Z,2.23
2018-04-10T18:28:08.980Z,1.50
2018-04-10T18:30:36.518Z,1.37
2018-04-10T18:33:04.850Z,0.80
2018-04-10T18:35:32.370Z,1.10
2018-04-10T18:38:00.634Z,1.60
2018-04-10T18:40:28.956Z,1.10
2018-04-10T18:42:56.469Z,1.23
2018-04-10T18:45:24.751Z,1.60
2018-04-10T18:47:53.062Z,1.70
2018-04-10T18:50:20.581Z,2.63
2018-04-10T18:52:48.165Z,2.47
2018-04-10T18:55:15.688Z,2.60
2018-04-10T18:57:43.238Z,2.47
2018-04-10T19:00:10.751Z,2.73
2018-04-10T19:02:38.303Z,2.97
2018-04-10T19:05:05.822Z,3.17
2018-04-10T19:07:33.378Z,2.80
2018-04-10T19:10:00.898Z,3.43
2018-04-10T19:12:28.424Z,3.33
2018-04-10T19:14:56.726Z,4.10
2018-04-10T19:17:24.263Z,3.63
2018-04-10T19:19:52.577Z,3.70
2018-04-10T19:22:20.102Z,4.17
2018-04-10T19:24:47.632Z,3.90
2018-04-10T19:27:15.162Z,4.13
2018-04-10T19:29:42.686Z,4.10
2018-04-10T19:32:10.223Z,4.50
2018-04-10T19:34:38.522Z,5.93
2018-04-10T19:37:06.088Z,4.80
2018-04-10T19:39:33.622Z,4.57
2018-04-10T19:42:01.937Z,4.80
2018-04-10T19:44:29.455Z,4.83
2018-04-10T19:46:57.773Z,4.23
2018-04-10T19:49:25.298Z,5.93
2018-04-10T19:51:53.612Z,5.03
2018-04-10T19:54:21.166Z,5.50
2018-04-10T19:56:49.398Z,4.60
2018-04-10T19:59:16.972Z,4.90
2018-04-10T20:01:45.248Z,5.27
2018-04-10T20:04:13.569Z,5.50
2018-04-10T20:06:41.109Z,5.70
2018-04-10T20:09:08.649Z,5.07
2018-04-10T20:11:36.171Z,5.17
2018-04-10T20:14:03.716Z,5.53
2018-04-10T20:16:31.269Z,5.57
2018-04-10T20:18:58.834Z,5.77
2018-04-10T20:21:26.375Z,5.80
2018-04-10T20:23:53.924Z,5.47
2018-04-10T20:26:21.473Z,5.50
2018-04-10T20:28:48.997Z,6.20
2018-04-10T20:31:17.303Z,5.70
2018-04-10T20:33:44.822Z,5.50
2018-04-10T20:36:12.681Z,6.40
2018-04-10T20:38:40.220Z,5.73
2018-04-10T20:41:07.788Z,5.90
2018-04-10T20:43:35.330Z,5.77
2018-04-10T20:46:02.858Z,5.47
2018-04-10T20:48:30.391Z,5.93
2018-04-10T20:50:57.921Z,5.90
2018-04-10T20:53:25.462Z,4.57
2018-04-10T20:55:52.992Z,5.90
2018-04-10T20:58:20.547Z,4.97
2018-04-10T21:00:48.837Z,5.57
2018-04-10T21:03:16.383Z,5.70
2018-04-10T21:05:44.673Z,5.90
2018-04-10T21:08:12.262Z,7.23
2018-04-10T21:10:39.782Z,6.03
2018-04-10T21:13:07.322Z,5.67
2018-04-10T21:15:35.647Z,6.07
2018-04-10T21:18:03.183Z,4.90
2018-04-10T21:20:30.741Z,5.67
2018-04-10T21:22:58.256Z,5.80
2018-04-10T21:25:25.785Z,5.43
2018-04-10T21:27:53.311Z,5.97
2018-04-10T21:30:20.908Z,5.90
2018-04-10T21:32:48.421Z,5.90
2018-04-10T21:35:16.705Z,5.93
2018-04-10T21:37:45.006Z,5.83
2018-04-10T21:40:12.541Z,5.90
2018-04-10T21:42:46.602Z,5.27
2018-04-10T21:45:14.120Z,5.77
2018-04-10T21:47:41.665Z,5.73
2018-04-10T21:50:09.977Z,5.77
2018-04-10T21:52:37.562Z,5.57
2018-04-10T21:55:05.077Z,6.00
2018-04-10T21:57:32.642Z,6.10
2018-04-10T22:00:00.187Z,5.57
2018-04-10T22:19:51.083Z,5.77
2018-04-10T22:22:18.619Z,5.90
2018-04-10T22:24:46.157Z,6.20
2018-04-10T22:27:13.716Z,5.40
2018-04-10T22:29:41.246Z,6.10
2018-04-10T22:32:08.795Z,6.87
2018-04-10T22:34:37.091Z,5.87
2018-04-10T22:37:04.617Z,6.90
2018-04-10T22:39:32.138Z,6.13
2018-04-10T22:41:59.707Z,5.60
2018-04-10T22:44:28.027Z,6.40
2018-04-10T22:46:55.562Z,6.20
2018-04-10T22:49:23.110Z,5.70
2018-04-10T22:51:51.428Z,6.17
2018-04-10T22:54:25.698Z,4.70
2018-04-10T22:56:53.992Z,5.63
2018-04-10T22:59:21.525Z,6.70
2018-04-10T23:01:49.846Z,6.27
2018-04-10T23:04:17.378Z,5.50
2018-04-10T23:06:45.667Z,4.57
2018-04-10T23:09:13.230Z,6.05
2018-04-10T23:11:40.752Z,5.07
2018-04-10T23:14:08.297Z,4.90
2018-04-10T23:16:35.863Z,4.83
2018-04-10T23:19:03.398Z,5.40
2018-04-10T23:21:30.920Z,5.45
2018-04-10T23:23:58.479Z,5.30
2018-04-10T23:26:26.010Z,5.00
2018-04-10T23:28:53.529Z,5.10
2018-04-10T23:31:21.090Z,5.12
2018-04-10T23:33:49.390Z,4.73
2018-04-10T23:36:16.919Z,4.80
2018-04-10T23:38:45.241Z,5.03
2018-04-10T23:41:12.765Z,4.93
2018-04-10T23:43:40.307Z,4.50
2018-04-10T23:46:08.616Z,4.70
2018-04-10T23:48:36.143Z,4.78
2018-04-10T23:51:04.453Z,6.68
2018-04-10T23:53:32.009Z,5.85
2018-04-10T23:55:59.543Z,6.20
2018-04-10T23:58:27.839Z,4.80
